sensor_id;sensor_type;location;lat;lon;timestamp;temperature;humidity
871;DHT22;422;51.280;7.236;2022-07-19T00:01:52;18.80;99.90
871;DHT22;422;51.280;7.236;2022-07-19T00:04:20;18.80;99.90
871;DHT22;422;51.280;7.236;2022-07-19T00:06:52;18.70;99.90
871;DHT22;422;51.280;7.236;2022-07-19T00:09:21;18.70;99.90
871;DHT22;422;51.280;7.236;2022-07-19T00:11:53;18.60;99.90
871;DHT22;422;51.280;7.236;2022-07-19T00:14:21;18.60;99.90
871;DHT22;422;51.280;7.236;2022-07-19T00:16:49;18.60;99.90
871;DHT22;422;51.280;7.236;2022-07-19T00:19:16;18.50;99.90
871;DHT22;422;51.280;7.236;2022-07-19T00:21:45;18.30;99.90
871;DHT22;422;51.280;7.236;2022-07-19T00:24:15;18.30;99.90
871;DHT22;422;51.280;7.236;2022-07-19T00:26:42;18.30;99.90
871;DHT22;422;51.280;7.236;2022-07-19T00:29:09;18.30;99.90
871;DHT22;422;51.280;7.236;2022-07-19T00:31:36;18.30;99.90
871;DHT22;422;51.280;7.236;2022-07-19T00:34:04;18.20;99.90
871;DHT22;422;51.280;7.236;2022-07-19T00:36:34;18.20;99.90
871;DHT22;422;51.280;7.236;2022-07-19T00:39:03;18.20;99.90
871;DHT22;422;51.280;7.236;2022-07-19T00:41:38;18.20;99.90
871;DHT22;422;51.280;7.236;2022-07-19T00:44:11;18.30;99.90
871;DHT22;422;51.280;7.236;2022-07-19T00:46:39;18.20;99.90
871;DHT22;422;51.280;7.236;2022-07-19T00:49:09;18.10;99.90
871;DHT22;422;51.280;7.236;2022-07-19T00:51:39;18.10;99.90
871;DHT22;422;51.280;7.236;2022-07-19T00:54:12;18.10;99.90
871;DHT22;422;51.280;7.236;2022-07-19T00:56:41;18.00;99.90
871;DHT22;422;51.280;7.236;2022-07-19T00:59:11;17.90;99.90
871;DHT22;422;51.280;7.236;2022-07-19T01:01:39;17.80;99.90
871;DHT22;422;51.280;7.236;2022-07-19T01:04:07;17.80;99.90
871;DHT22;422;51.280;7.236;2022-07-19T01:06:34;17.80;99.90
871;DHT22;422;51.280;7.236;2022-07-19T01:09:05;17.80;99.90
871;DHT22;422;51.280;7.236;2022-07-19T01:11:33;17.70;99.90
871;DHT22;422;51.280;7.236;2022-07-19T01:14:00;17.70;99.90
871;DHT22;422;51.280;7.236;2022-07-19T01:16:31;17.70;99.90
871;DHT22;422;51.280;7.236;2022-07-19T01:18:58;17.70;99.90
871;DHT22;422;51.280;7.236;2022-07-19T01:21:26;17.70;99.90
871;DHT22;422;51.280;7.236;2022-07-19T01:23:55;17.60;99.90
871;DHT22;422;51.280;7.236;2022-07-19T01:26:22;17.60;99.90
871;DHT22;422;51.280;7.236;2022-07-19T01:28:50;17.60;99.90
871;DHT22;422;51.280;7.236;2022-07-19T01:31:17;17.50;99.90
871;DHT22;422;51.280;7.236;2022-07-19T01:33:47;17.50;99.90
871;DHT22;422;51.280;7.236;2022-07-19T01:36:14;17.40;99.90
871;DHT22;422;51.280;7.236;2022-07-19T01:38:47;17.40;99.90
871;DHT22;422;51.280;7.236;2022-07-19T01:41:15;17.40;99.90
871;DHT22;422;51.280;7.236;2022-07-19T01:43:42;17.30;99.90
871;DHT22;422;51.280;7.236;2022-07-19T01:46:11;17.30;99.90
871;DHT22;422;51.280;7.236;2022-07-19T01:48:41;17.30;99.90
871;DHT22;422;51.280;7.236;2022-07-19T01:51:10;17.30;99.90
871;DHT22;422;51.280;7.236;2022-07-19T01:53:37;17.20;99.90
871;DHT22;422;51.280;7.236;2022-07-19T01:56:06;17.20;99.90
871;DHT22;422;51.280;7.236;2022-07-19T01:58:37;17.20;99.90
871;DHT22;422;51.280;7.236;2022-07-19T02:01:04;17.20;99.90
871;DHT22;422;51.280;7.236;2022-07-19T02:03:32;17.10;99.90
871;DHT22;422;51.280;7.236;2022-07-19T02:05:59;17.20;99.90
871;DHT22;422;51.280;7.236;2022-07-19T02:08:27;17.10;99.90
871;DHT22;422;51.280;7.236;2022-07-19T02:10:59;17.10;99.90
871;DHT22;422;51.280;7.236;2022-07-19T02:13:50;17.10;99.90
871;DHT22;422;51.280;7.236;2022-07-19T02:16:17;17.00;99.90
871;DHT22;422;51.280;7.236;2022-07-19T02:18:44;16.90;99.90
871;DHT22;422;51.280;7.236;2022-07-19T02:21:12;16.90;99.90
871;DHT22;422;51.280;7.236;2022-07-19T02:23:41;16.80;99.90
871;DHT22;422;51.280;7.236;2022-07-19T02:26:08;16.80;99.90
871;DHT22;422;51.280;7.236;2022-07-19T02:28:37;16.90;99.90
871;DHT22;422;51.280;7.236;2022-07-19T02:31:10;16.80;99.90
871;DHT22;422;51.280;7.236;2022-07-19T02:33:38;16.80;99.90
871;DHT22;422;51.280;7.236;2022-07-19T02:36:06;16.70;99.90
871;DHT22;422;51.280;7.236;2022-07-19T02:38:34;16.70;99.90
871;DHT22;422;51.280;7.236;2022-07-19T02:41:05;16.70;99.90
871;DHT22;422;51.280;7.236;2022-07-19T02:43:33;16.70;99.90
871;DHT22;422;51.280;7.236;2022-07-19T02:46:00;16.70;99.90
871;DHT22;422;51.280;7.236;2022-07-19T02:48:29;16.70;99.90
871;DHT22;422;51.280;7.236;2022-07-19T02:50:59;16.60;99.90
871;DHT22;422;51.280;7.236;2022-07-19T02:53:27;16.60;99.90
871;DHT22;422;51.280;7.236;2022-07-19T02:55:54;16.50;99.90
871;DHT22;422;51.280;7.236;2022-07-19T02:58:24;16.50;99.90
871;DHT22;422;51.280;7.236;2022-07-19T03:00:54;16.40;99.90
871;DHT22;422;51.280;7.236;2022-07-19T03:03:25;16.30;99.90
871;DHT22;422;51.280;7.236;2022-07-19T03:06:15;16.40;99.90
871;DHT22;422;51.280;7.236;2022-07-19T03:08:43;16.30;99.90
871;DHT22;422;51.280;7.236;2022-07-19T03:11:13;16.40;99.90
871;DHT22;422;51.280;7.236;2022-07-19T03:13:41;16.40;99.90
871;DHT22;422;51.280;7.236;2022-07-19T03:16:08;16.40;99.90
871;DHT22;422;51.280;7.236;2022-07-19T03:18:36;16.40;99.90
871;DHT22;422;51.280;7.236;2022-07-19T03:21:06;16.40;99.90
871;DHT22;422;51.280;7.236;2022-07-19T03:23:36;16.40;99.90
871;DHT22;422;51.280;7.236;2022-07-19T03:26:06;16.40;99.90
871;DHT22;422;51.280;7.236;2022-07-19T03:28:35;16.40;99.90
871;DHT22;422;51.280;7.236;2022-07-19T03:31:05;16.30;99.90
871;DHT22;422;51.280;7.236;2022-07-19T03:33:36;16.30;99.90
871;DHT22;422;51.280;7.236;2022-07-19T03:36:03;16.30;99.90
871;DHT22;422;51.280;7.236;2022-07-19T03:38:31;16.30;99.90
871;DHT22;422;51.280;7.236;2022-07-19T03:41:02;16.30;99.90
871;DHT22;422;51.280;7.236;2022-07-19T03:43:31;16.20;99.90
871;DHT22;422;51.280;7.236;2022-07-19T03:46:01;16.20;99.90
871;DHT22;422;51.280;7.236;2022-07-19T03:48:28;16.10;99.90
871;DHT22;422;51.280;7.236;2022-07-19T03:50:55;16.20;99.90
871;DHT22;422;51.280;7.236;2022-07-19T03:53:23;16.20;99.90
871;DHT22;422;51.280;7.236;2022-07-19T03:55:53;16.30;99.90
871;DHT22;422;51.280;7.236;2022-07-19T03:58:23;16.30;99.90
871;DHT22;422;51.280;7.236;2022-07-19T04:00:53;16.30;99.90
871;DHT22;422;51.280;7.236;2022-07-19T04:03:20;16.30;99.90
871;DHT22;422;51.280;7.236;2022-07-19T04:05:48;16.30;99.90
871;DHT22;422;51.280;7.236;2022-07-19T04:08:15;16.30;99.90
871;DHT22;422;51.280;7.236;2022-07-19T04:10:42;16.30;99.90
871;DHT22;422;51.280;7.236;2022-07-19T04:13:09;16.40;99.90
871;DHT22;422;51.280;7.236;2022-07-19T04:15:40;16.30;99.90
871;DHT22;422;51.280;7.236;2022-07-19T04:18:09;16.40;99.90
871;DHT22;422;51.280;7.236;2022-07-19T04:20:39;16.40;99.90
871;DHT22;422;51.280;7.236;2022-07-19T04:23:06;16.50;99.90
871;DHT22;422;51.280;7.236;2022-07-19T04:25:34;16.60;99.90
871;DHT22;422;51.280;7.236;2022-07-19T04:28:03;16.60;99.90
871;DHT22;422;51.280;7.236;2022-07-19T04:30:38;16.60;99.90
871;DHT22;422;51.280;7.236;2022-07-19T04:33:06;16.50;99.90
871;DHT22;422;51.280;7.236;2022-07-19T04:35:33;16.50;99.90
871;DHT22;422;51.280;7.236;2022-07-19T04:38:03;16.50;99.90
871;DHT22;422;51.280;7.236;2022-07-19T04:40:30;16.60;99.90
871;DHT22;422;51.280;7.236;2022-07-19T04:42:57;16.50;99.90
871;DHT22;422;51.280;7.236;2022-07-19T04:45:26;16.60;99.90
871;DHT22;422;51.280;7.236;2022-07-19T04:47:55;16.80;99.90
871;DHT22;422;51.280;7.236;2022-07-19T04:50:22;16.90;99.90
871;DHT22;422;51.280;7.236;2022-07-19T04:52:51;16.90;99.90
871;DHT22;422;51.280;7.236;2022-07-19T04:55:18;17.10;99.90
871;DHT22;422;51.280;7.236;2022-07-19T04:57:45;17.20;99.90
871;DHT22;422;51.280;7.236;2022-07-19T05:00:13;17.30;99.90
871;DHT22;422;51.280;7.236;2022-07-19T05:02:43;17.30;99.90
871;DHT22;422;51.280;7.236;2022-07-19T05:05:12;17.40;99.90
871;DHT22;422;51.280;7.236;2022-07-19T05:07:40;17.40;99.90
871;DHT22;422;51.280;7.236;2022-07-19T05:10:08;17.50;99.90
871;DHT22;422;51.280;7.236;2022-07-19T05:12:37;17.70;99.90
871;DHT22;422;51.280;7.236;2022-07-19T05:15:05;17.80;99.90
871;DHT22;422;51.280;7.236;2022-07-19T05:17:35;17.90;99.90
871;DHT22;422;51.280;7.236;2022-07-19T05:20:03;17.90;99.90
871;DHT22;422;51.280;7.236;2022-07-19T05:22:32;18.00;99.90
871;DHT22;422;51.280;7.236;2022-07-19T05:24:59;18.10;99.90
871;DHT22;422;51.280;7.236;2022-07-19T05:27:27;18.20;99.90
871;DHT22;422;51.280;7.236;2022-07-19T05:29:54;18.30;99.90
871;DHT22;422;51.280;7.236;2022-07-19T05:32:22;18.50;99.90
871;DHT22;422;51.280;7.236;2022-07-19T05:34:57;18.70;99.90
871;DHT22;422;51.280;7.236;2022-07-19T05:37:24;18.80;99.90
871;DHT22;422;51.280;7.236;2022-07-19T05:39:53;19.00;99.90
871;DHT22;422;51.280;7.236;2022-07-19T05:42:22;19.20;99.90
871;DHT22;422;51.280;7.236;2022-07-19T05:44:49;19.30;99.90
871;DHT22;422;51.280;7.236;2022-07-19T05:47:17;19.50;99.90
871;DHT22;422;51.280;7.236;2022-07-19T05:49:44;19.70;99.90
871;DHT22;422;51.280;7.236;2022-07-19T05:52:11;19.90;99.90
871;DHT22;422;51.280;7.236;2022-07-19T05:54:41;20.20;99.90
871;DHT22;422;51.280;7.236;2022-07-19T05:57:17;20.40;99.90
871;DHT22;422;51.280;7.236;2022-07-19T05:59:44;20.70;99.90
871;DHT22;422;51.280;7.236;2022-07-19T06:02:11;21.10;99.90
871;DHT22;422;51.280;7.236;2022-07-19T06:04:41;21.40;99.90
871;DHT22;422;51.280;7.236;2022-07-19T06:07:09;21.80;99.90
871;DHT22;422;51.280;7.236;2022-07-19T06:09:38;22.20;99.90
871;DHT22;422;51.280;7.236;2022-07-19T06:12:06;22.50;99.90
871;DHT22;422;51.280;7.236;2022-07-19T06:14:34;22.90;99.90
871;DHT22;422;51.280;7.236;2022-07-19T06:17:02;23.30;99.90
871;DHT22;422;51.280;7.236;2022-07-19T06:19:33;23.60;99.90
871;DHT22;422;51.280;7.236;2022-07-19T06:22:00;24.00;99.90
871;DHT22;422;51.280;7.236;2022-07-19T06:24:30;24.40;99.90
871;DHT22;422;51.280;7.236;2022-07-19T06:26:57;24.80;99.90
871;DHT22;422;51.280;7.236;2022-07-19T06:29:27;25.10;99.90
871;DHT22;422;51.280;7.236;2022-07-19T06:32:04;25.60;99.90
871;DHT22;422;51.280;7.236;2022-07-19T06:34:31;26.10;99.90
871;DHT22;422;51.280;7.236;2022-07-19T06:37:06;26.50;99.90
871;DHT22;422;51.280;7.236;2022-07-19T06:39:33;26.90;99.90
871;DHT22;422;51.280;7.236;2022-07-19T06:42:02;27.30;99.90
871;DHT22;422;51.280;7.236;2022-07-19T06:44:30;27.60;99.90
871;DHT22;422;51.280;7.236;2022-07-19T06:46:57;27.80;99.90
871;DHT22;422;51.280;7.236;2022-07-19T06:49:26;28.00;99.90
871;DHT22;422;51.280;7.236;2022-07-19T06:51:54;28.30;99.90
871;DHT22;422;51.280;7.236;2022-07-19T06:54:22;28.70;99.90
871;DHT22;422;51.280;7.236;2022-07-19T06:56:58;28.90;99.90
871;DHT22;422;51.280;7.236;2022-07-19T06:59:25;29.20;99.90
871;DHT22;422;51.280;7.236;2022-07-19T07:01:55;29.30;99.90
871;DHT22;422;51.280;7.236;2022-07-19T07:04:26;29.40;99.90
871;DHT22;422;51.280;7.236;2022-07-19T07:06:53;29.70;99.90
871;DHT22;422;51.280;7.236;2022-07-19T07:09:22;29.90;99.90
871;DHT22;422;51.280;7.236;2022-07-19T07:11:51;30.30;99.90
871;DHT22;422;51.280;7.236;2022-07-19T07:14:22;30.50;99.90
871;DHT22;422;51.280;7.236;2022-07-19T07:16:49;30.80;99.90
871;DHT22;422;51.280;7.236;2022-07-19T07:19:17;30.90;99.90
871;DHT22;422;51.280;7.236;2022-07-19T07:21:46;31.10;99.90
871;DHT22;422;51.280;7.236;2022-07-19T07:24:16;31.30;99.90
871;DHT22;422;51.280;7.236;2022-07-19T07:26:46;31.40;99.90
871;DHT22;422;51.280;7.236;2022-07-19T07:29:13;31.30;99.90
871;DHT22;422;51.280;7.236;2022-07-19T07:31:43;31.40;99.90
871;DHT22;422;51.280;7.236;2022-07-19T07:34:10;31.50;99.90
871;DHT22;422;51.280;7.236;2022-07-19T07:36:37;31.60;99.90
871;DHT22;422;51.280;7.236;2022-07-19T07:39:06;31.80;99.90
871;DHT22;422;51.280;7.236;2022-07-19T07:41:33;32.10;99.90
871;DHT22;422;51.280;7.236;2022-07-19T07:44:00;32.40;99.90
871;DHT22;422;51.280;7.236;2022-07-19T07:46:28;32.50;99.90
871;DHT22;422;51.280;7.236;2022-07-19T07:48:55;32.30;99.90
871;DHT22;422;51.280;7.236;2022-07-19T07:51:22;32.60;99.90
871;DHT22;422;51.280;7.236;2022-07-19T07:53:51;32.90;99.90
871;DHT22;422;51.280;7.236;2022-07-19T07:56:20;33.30;99.90
871;DHT22;422;51.280;7.236;2022-07-19T07:58:48;33.70;99.90
871;DHT22;422;51.280;7.236;2022-07-19T08:01:16;33.90;99.90
871;DHT22;422;51.280;7.236;2022-07-19T08:03:43;34.20;99.90
871;DHT22;422;51.280;7.236;2022-07-19T08:06:11;34.30;99.90
871;DHT22;422;51.280;7.236;2022-07-19T08:08:38;34.60;99.90
871;DHT22;422;51.280;7.236;2022-07-19T08:11:06;34.60;99.90
871;DHT22;422;51.280;7.236;2022-07-19T08:13:40;34.80;99.90
871;DHT22;422;51.280;7.236;2022-07-19T08:16:07;35.20;99.90
871;DHT22;422;51.280;7.236;2022-07-19T08:18:35;35.50;99.90
871;DHT22;422;51.280;7.236;2022-07-19T08:21:05;35.70;99.90
871;DHT22;422;51.280;7.236;2022-07-19T08:23:32;35.40;99.90
871;DHT22;422;51.280;7.236;2022-07-19T08:26:02;35.70;99.90
871;DHT22;422;51.280;7.236;2022-07-19T08:28:29;35.60;99.90
871;DHT22;422;51.280;7.236;2022-07-19T08:31:01;35.40;99.90
871;DHT22;422;51.280;7.236;2022-07-19T08:33:29;35.40;99.90
871;DHT22;422;51.280;7.236;2022-07-19T08:35:57;35.20;99.90
871;DHT22;422;51.280;7.236;2022-07-19T08:38:24;35.40;99.90
871;DHT22;422;51.280;7.236;2022-07-19T08:40:52;35.20;99.90
871;DHT22;422;51.280;7.236;2022-07-19T08:43:21;35.50;99.90
871;DHT22;422;51.280;7.236;2022-07-19T08:45:49;35.70;99.90
871;DHT22;422;51.280;7.236;2022-07-19T08:48:18;36.00;99.90
871;DHT22;422;51.280;7.236;2022-07-19T08:50:47;36.00;99.90
871;DHT22;422;51.280;7.236;2022-07-19T08:53:22;36.10;99.90
871;DHT22;422;51.280;7.236;2022-07-19T08:55:56;36.30;99.90
871;DHT22;422;51.280;7.236;2022-07-19T08:58:24;36.10;99.90
871;DHT22;422;51.280;7.236;2022-07-19T09:00:53;36.20;99.90
871;DHT22;422;51.280;7.236;2022-07-19T09:03:24;36.50;99.90
871;DHT22;422;51.280;7.236;2022-07-19T09:06:03;36.80;99.90
871;DHT22;422;51.280;7.236;2022-07-19T09:08:30;36.40;99.90
871;DHT22;422;51.280;7.236;2022-07-19T09:11:01;36.50;99.90
871;DHT22;422;51.280;7.236;2022-07-19T09:13:51;36.70;99.90
871;DHT22;422;51.280;7.236;2022-07-19T09:16:20;37.00;99.90
871;DHT22;422;51.280;7.236;2022-07-19T09:18:50;36.80;99.90
871;DHT22;422;51.280;7.236;2022-07-19T09:21:30;36.80;99.90
871;DHT22;422;51.280;7.236;2022-07-19T09:24:02;36.70;99.90
871;DHT22;422;51.280;7.236;2022-07-19T09:26:29;37.10;99.90
871;DHT22;422;51.280;7.236;2022-07-19T09:29:18;37.10;99.90
871;DHT22;422;51.280;7.236;2022-07-19T09:31:58;37.10;99.90
871;DHT22;422;51.280;7.236;2022-07-19T09:34:34;37.30;99.90
871;DHT22;422;51.280;7.236;2022-07-19T09:37:26;37.60;99.90
871;DHT22;422;51.280;7.236;2022-07-19T09:39:56;38.10;99.90
871;DHT22;422;51.280;7.236;2022-07-19T09:42:24;38.40;99.90
871;DHT22;422;51.280;7.236;2022-07-19T09:45:04;38.40;99.90
871;DHT22;422;51.280;7.236;2022-07-19T09:47:36;38.10;99.90
871;DHT22;422;51.280;7.236;2022-07-19T09:50:08;38.00;99.90
871;DHT22;422;51.280;7.236;2022-07-19T09:52:36;38.00;99.90
871;DHT22;422;51.280;7.236;2022-07-19T09:55:09;38.20;99.90
871;DHT22;422;51.280;7.236;2022-07-19T09:57:40;38.00;99.90
871;DHT22;422;51.280;7.236;2022-07-19T10:00:11;38.30;99.90
871;DHT22;422;51.280;7.236;2022-07-19T10:02:42;38.50;99.90
871;DHT22;422;51.280;7.236;2022-07-19T10:05:14;38.70;99.90
871;DHT22;422;51.280;7.236;2022-07-19T10:07:44;38.40;99.90
871;DHT22;422;51.280;7.236;2022-07-19T10:10:14;38.90;99.90
871;DHT22;422;51.280;7.236;2022-07-19T10:12:48;39.40;99.90
871;DHT22;422;51.280;7.236;2022-07-19T10:15:17;39.50;99.90
871;DHT22;422;51.280;7.236;2022-07-19T10:18:13;39.70;99.90
871;DHT22;422;51.280;7.236;2022-07-19T10:20:45;39.60;99.90
871;DHT22;422;51.280;7.236;2022-07-19T10:23:26;39.60;99.90
871;DHT22;422;51.280;7.236;2022-07-19T10:25:57;39.70;99.90
871;DHT22;422;51.280;7.236;2022-07-19T10:28:30;39.80;99.90
871;DHT22;422;51.280;7.236;2022-07-19T10:31:01;39.70;99.90
871;DHT22;422;51.280;7.236;2022-07-19T10:33:33;39.30;99.90
871;DHT22;422;51.280;7.236;2022-07-19T10:36:33;39.30;99.90
871;DHT22;422;51.280;7.236;2022-07-19T10:39:21;39.50;99.90
871;DHT22;422;51.280;7.236;2022-07-19T10:42:19;40.00;99.90
871;DHT22;422;51.280;7.236;2022-07-19T10:45:14;40.50;99.90
871;DHT22;422;51.280;7.236;2022-07-19T10:48:12;40.50;99.90
871;DHT22;422;51.280;7.236;2022-07-19T10:51:08;40.60;99.90
871;DHT22;422;51.280;7.236;2022-07-19T10:54:03;40.10;99.90
871;DHT22;422;51.280;7.236;2022-07-19T10:56:36;39.80;99.90
871;DHT22;422;51.280;7.236;2022-07-19T10:59:08;39.70;99.90
871;DHT22;422;51.280;7.236;2022-07-19T11:01:37;39.30;99.90
871;DHT22;422;51.280;7.236;2022-07-19T11:04:34;39.10;99.90
871;DHT22;422;51.280;7.236;2022-07-19T11:07:18;39.40;99.90
871;DHT22;422;51.280;7.236;2022-07-19T11:09:51;39.30;99.90
871;DHT22;422;51.280;7.236;2022-07-19T11:12:24;39.00;99.90
871;DHT22;422;51.280;7.236;2022-07-19T11:14:55;38.60;99.90
871;DHT22;422;51.280;7.236;2022-07-19T11:17:26;38.90;99.90
871;DHT22;422;51.280;7.236;2022-07-19T11:19:57;39.60;99.90
871;DHT22;422;51.280;7.236;2022-07-19T11:22:32;40.10;99.90
871;DHT22;422;51.280;7.236;2022-07-19T11:25:07;40.20;99.90
871;DHT22;422;51.280;7.236;2022-07-19T11:27:39;40.20;99.90
871;DHT22;422;51.280;7.236;2022-07-19T11:30:11;40.30;99.90
871;DHT22;422;51.280;7.236;2022-07-19T11:32:41;40.90;99.90
871;DHT22;422;51.280;7.236;2022-07-19T11:35:12;40.70;99.90
871;DHT22;422;51.280;7.236;2022-07-19T11:37:51;41.10;99.90
871;DHT22;422;51.280;7.236;2022-07-19T11:40:20;41.70;99.90
871;DHT22;422;51.280;7.236;2022-07-19T11:42:49;41.40;99.90
871;DHT22;422;51.280;7.236;2022-07-19T11:45:21;41.60;99.90
871;DHT22;422;51.280;7.236;2022-07-19T11:47:56;41.80;99.90
871;DHT22;422;51.280;7.236;2022-07-19T11:50:25;41.50;99.90
871;DHT22;422;51.280;7.236;2022-07-19T11:52:57;40.70;99.90
871;DHT22;422;51.280;7.236;2022-07-19T11:55:33;40.40;99.90
871;DHT22;422;51.280;7.236;2022-07-19T11:58:05;41.10;99.90
871;DHT22;422;51.280;7.236;2022-07-19T12:00:35;41.30;99.90
871;DHT22;422;51.280;7.236;2022-07-19T12:03:04;41.40;99.90
871;DHT22;422;51.280;7.236;2022-07-19T12:05:36;41.40;99.90
871;DHT22;422;51.280;7.236;2022-07-19T12:08:06;41.40;99.90
871;DHT22;422;51.280;7.236;2022-07-19T12:10:42;41.40;99.90
871;DHT22;422;51.280;7.236;2022-07-19T12:13:15;40.60;99.90
871;DHT22;422;51.280;7.236;2022-07-19T12:15:50;40.10;99.90
871;DHT22;422;51.280;7.236;2022-07-19T12:18:23;40.40;99.90
871;DHT22;422;51.280;7.236;2022-07-19T12:21:18;40.70;99.90
871;DHT22;422;51.280;7.236;2022-07-19T12:24:11;40.70;99.90
871;DHT22;422;51.280;7.236;2022-07-19T12:26:56;40.60;99.90
871;DHT22;422;51.280;7.236;2022-07-19T12:29:26;40.80;99.90
871;DHT22;422;51.280;7.236;2022-07-19T12:31:56;41.20;99.90
871;DHT22;422;51.280;7.236;2022-07-19T12:34:24;41.40;99.90
871;DHT22;422;51.280;7.236;2022-07-19T12:36:51;41.60;99.90
871;DHT22;422;51.280;7.236;2022-07-19T12:39:26;41.90;99.90
871;DHT22;422;51.280;7.236;2022-07-19T12:42:04;41.10;99.90
871;DHT22;422;51.280;7.236;2022-07-19T12:44:38;40.90;99.90
871;DHT22;422;51.280;7.236;2022-07-19T12:47:09;41.00;99.90
871;DHT22;422;51.280;7.236;2022-07-19T12:49:47;41.00;99.90
871;DHT22;422;51.280;7.236;2022-07-19T12:52:14;41.10;99.90
871;DHT22;422;51.280;7.236;2022-07-19T12:54:43;41.60;99.90
871;DHT22;422;51.280;7.236;2022-07-19T12:57:19;42.10;99.90
871;DHT22;422;51.280;7.236;2022-07-19T12:59:47;42.40;99.90
871;DHT22;422;51.280;7.236;2022-07-19T13:02:16;42.10;99.90
871;DHT22;422;51.280;7.236;2022-07-19T13:04:45;41.10;99.90
871;DHT22;422;51.280;7.236;2022-07-19T13:07:18;41.50;99.90
871;DHT22;422;51.280;7.236;2022-07-19T13:09:50;41.60;99.90
871;DHT22;422;51.280;7.236;2022-07-19T13:12:20;41.40;99.90
871;DHT22;422;51.280;7.236;2022-07-19T13:14:53;41.20;99.90
871;DHT22;422;51.280;7.236;2022-07-19T13:17:22;41.60;99.90
871;DHT22;422;51.280;7.236;2022-07-19T13:19:49;41.10;99.90
871;DHT22;422;51.280;7.236;2022-07-19T13:22:17;41.00;99.90
871;DHT22;422;51.280;7.236;2022-07-19T13:24:44;41.50;99.90
871;DHT22;422;51.280;7.236;2022-07-19T13:27:13;42.00;99.90
871;DHT22;422;51.280;7.236;2022-07-19T13:29:43;41.90;99.90
871;DHT22;422;51.280;7.236;2022-07-19T13:32:11;41.70;99.90
871;DHT22;422;51.280;7.236;2022-07-19T13:34:42;41.90;99.90
871;DHT22;422;51.280;7.236;2022-07-19T13:37:12;41.60;99.90
871;DHT22;422;51.280;7.236;2022-07-19T13:39:39;40.80;99.90
871;DHT22;422;51.280;7.236;2022-07-19T13:42:07;40.40;99.90
871;DHT22;422;51.280;7.236;2022-07-19T13:44:36;40.50;99.90
871;DHT22;422;51.280;7.236;2022-07-19T13:47:04;40.90;99.90
871;DHT22;422;51.280;7.236;2022-07-19T13:49:32;41.10;99.90
871;DHT22;422;51.280;7.236;2022-07-19T13:52:02;41.30;99.90
871;DHT22;422;51.280;7.236;2022-07-19T13:54:32;41.10;99.90
871;DHT22;422;51.280;7.236;2022-07-19T13:57:00;41.10;99.90
871;DHT22;422;51.280;7.236;2022-07-19T13:59:27;40.80;99.90
871;DHT22;422;51.280;7.236;2022-07-19T14:01:58;41.00;99.90
871;DHT22;422;51.280;7.236;2022-07-19T14:04:28;41.10;99.90
871;DHT22;422;51.280;7.236;2022-07-19T14:07:05;41.20;99.90
871;DHT22;422;51.280;7.236;2022-07-19T14:09:33;41.30;99.90
871;DHT22;422;51.280;7.236;2022-07-19T14:12:05;41.30;99.90
871;DHT22;422;51.280;7.236;2022-07-19T14:14:32;41.30;99.90
871;DHT22;422;51.280;7.236;2022-07-19T14:17:04;41.30;99.90
871;DHT22;422;51.280;7.236;2022-07-19T14:19:35;41.70;99.90
871;DHT22;422;51.280;7.236;2022-07-19T14:22:05;41.50;99.90
871;DHT22;422;51.280;7.236;2022-07-19T14:24:32;41.00;99.90
871;DHT22;422;51.280;7.236;2022-07-19T14:27:06;40.70;99.90
871;DHT22;422;51.280;7.236;2022-07-19T14:29:44;41.00;99.90
871;DHT22;422;51.280;7.236;2022-07-19T14:32:13;40.90;99.90
871;DHT22;422;51.280;7.236;2022-07-19T14:34:41;40.40;99.90
871;DHT22;422;51.280;7.236;2022-07-19T14:37:08;40.50;99.90
871;DHT22;422;51.280;7.236;2022-07-19T14:39:36;40.50;99.90
871;DHT22;422;51.280;7.236;2022-07-19T14:42:03;40.30;99.90
871;DHT22;422;51.280;7.236;2022-07-19T14:44:31;40.30;99.90
871;DHT22;422;51.280;7.236;2022-07-19T14:46:59;40.40;99.90
871;DHT22;422;51.280;7.236;2022-07-19T14:49:28;40.50;99.90
871;DHT22;422;51.280;7.236;2022-07-19T14:51:56;41.00;99.90
871;DHT22;422;51.280;7.236;2022-07-19T14:54:28;40.90;99.90
871;DHT22;422;51.280;7.236;2022-07-19T14:56:56;41.00;99.90
871;DHT22;422;51.280;7.236;2022-07-19T14:59:25;40.80;99.90
871;DHT22;422;51.280;7.236;2022-07-19T15:01:56;40.50;99.90
871;DHT22;422;51.280;7.236;2022-07-19T15:04:23;40.30;99.90
871;DHT22;422;51.280;7.236;2022-07-19T15:06:53;39.90;99.90
871;DHT22;422;51.280;7.236;2022-07-19T15:09:24;39.70;99.90
871;DHT22;422;51.280;7.236;2022-07-19T15:11:57;39.90;99.90
871;DHT22;422;51.280;7.236;2022-07-19T15:14:29;40.30;99.90
871;DHT22;422;51.280;7.236;2022-07-19T15:16:57;40.00;99.90
871;DHT22;422;51.280;7.236;2022-07-19T15:19:25;40.10;99.90
871;DHT22;422;51.280;7.236;2022-07-19T15:21:54;40.20;99.90
871;DHT22;422;51.280;7.236;2022-07-19T15:24:21;40.20;99.90
871;DHT22;422;51.280;7.236;2022-07-19T15:26:48;40.30;99.90
871;DHT22;422;51.280;7.236;2022-07-19T15:29:16;40.30;99.90
871;DHT22;422;51.280;7.236;2022-07-19T15:31:46;40.20;99.90
871;DHT22;422;51.280;7.236;2022-07-19T15:34:16;40.30;99.90
871;DHT22;422;51.280;7.236;2022-07-19T15:36:48;40.10;99.90
871;DHT22;422;51.280;7.236;2022-07-19T15:39:19;40.00;99.90
871;DHT22;422;51.280;7.236;2022-07-19T15:41:46;39.90;99.90
871;DHT22;422;51.280;7.236;2022-07-19T15:44:13;40.30;99.90
871;DHT22;422;51.280;7.236;2022-07-19T15:46:41;40.20;99.90
871;DHT22;422;51.280;7.236;2022-07-19T15:49:08;39.90;99.90
871;DHT22;422;51.280;7.236;2022-07-19T15:51:36;39.70;99.90
871;DHT22;422;51.280;7.236;2022-07-19T15:54:15;39.60;99.90
871;DHT22;422;51.280;7.236;2022-07-19T15:56:46;39.40;99.90
871;DHT22;422;51.280;7.236;2022-07-19T15:59:16;39.30;99.90
871;DHT22;422;51.280;7.236;2022-07-19T16:01:44;39.20;99.90
871;DHT22;422;51.280;7.236;2022-07-19T16:04:11;39.00;99.90
871;DHT22;422;51.280;7.236;2022-07-19T16:06:39;39.00;99.90
871;DHT22;422;51.280;7.236;2022-07-19T16:09:07;38.90;99.90
871;DHT22;422;51.280;7.236;2022-07-19T16:11:36;39.00;99.90
871;DHT22;422;51.280;7.236;2022-07-19T16:14:05;39.10;99.90
871;DHT22;422;51.280;7.236;2022-07-19T16:16:34;39.10;99.90
871;DHT22;422;51.280;7.236;2022-07-19T16:19:04;39.00;99.90
871;DHT22;422;51.280;7.236;2022-07-19T16:21:32;39.00;99.90
871;DHT22;422;51.280;7.236;2022-07-19T16:24:00;39.20;99.90
871;DHT22;422;51.280;7.236;2022-07-19T16:26:32;38.80;99.90
871;DHT22;422;51.280;7.236;2022-07-19T16:29:00;38.70;99.90
871;DHT22;422;51.280;7.236;2022-07-19T16:31:32;38.60;99.90
871;DHT22;422;51.280;7.236;2022-07-19T16:33:59;38.60;99.90
871;DHT22;422;51.280;7.236;2022-07-19T16:36:27;38.70;99.90
871;DHT22;422;51.280;7.236;2022-07-19T16:38:57;38.60;99.90
871;DHT22;422;51.280;7.236;2022-07-19T16:41:27;38.50;99.90
871;DHT22;422;51.280;7.236;2022-07-19T16:43:54;38.30;99.90
871;DHT22;422;51.280;7.236;2022-07-19T16:46:24;38.20;99.90
871;DHT22;422;51.280;7.236;2022-07-19T16:48:52;38.10;99.90
871;DHT22;422;51.280;7.236;2022-07-19T16:51:23;38.10;99.90
871;DHT22;422;51.280;7.236;2022-07-19T16:53:52;37.90;99.90
871;DHT22;422;51.280;7.236;2022-07-19T16:56:21;37.80;99.90